createdAt,value
2023-04-26T00:00:32.007Z,439.00
2023-04-26T00:01:32.022Z,440.00
2023-04-26T00:02:32.101Z,439.00
2023-04-26T00:03:32.123Z,441.00
2023-04-26T00:04:32.350Z,441.00
2023-04-26T00:05:32.111Z,442.00
2023-04-26T00:06:32.107Z,444.00
2023-04-26T00:07:32.108Z,443.00
2023-04-26T00:08:32.149Z,444.00
2023-04-26T00:09:32.188Z,442.00
2023-04-26T00:10:32.197Z,443.00
2023-04-26T00:11:32.223Z,440.00
2023-04-26T00:12:32.228Z,442.00
2023-04-26T00:13:32.273Z,442.00
2023-04-26T00:14:32.297Z,444.00
2023-04-26T00:15:32.300Z,443.00
2023-04-26T00:16:32.322Z,442.00
2023-04-26T00:17:32.348Z,442.00
2023-04-26T00:18:32.391Z,443.00
2023-04-26T00:19:32.373Z,443.00
2023-04-26T00:20:32.434Z,443.00
2023-04-26T00:21:32.436Z,442.00
2023-04-26T00:22:32.481Z,441.00
2023-04-26T00:23:32.473Z,440.00
2023-04-26T00:24:32.524Z,441.00
2023-04-26T00:25:32.531Z,439.00
2023-04-26T00:26:32.569Z,440.00
2023-04-26T00:27:32.564Z,440.00
2023-04-26T00:28:32.588Z,441.00
2023-04-26T00:29:32.639Z,441.00
2023-04-26T00:30:32.662Z,440.00
2023-04-26T00:31:32.756Z,441.00
2023-04-26T00:32:32.741Z,439.00
2023-04-26T00:33:32.725Z,440.00
2023-04-26T00:34:33.248Z,437.00
2023-04-26T00:35:32.783Z,437.00
2023-04-26T00:36:32.807Z,436.00
2023-04-26T00:37:32.840Z,433.00
2023-04-26T00:38:32.851Z,432.00
2023-04-26T00:39:32.867Z,432.00
2023-04-26T00:40:32.897Z,432.00
2023-04-26T00:41:32.948Z,433.00
2023-04-26T00:42:32.974Z,433.00
2023-04-26T00:43:33.031Z,436.00
2023-04-26T00:44:33.027Z,435.00
2023-04-26T00:45:33.140Z,438.00
2023-04-26T00:46:33.101Z,440.00
2023-04-26T00:47:33.175Z,438.00
2023-04-26T00:48:33.164Z,436.00
2023-04-26T00:49:33.176Z,437.00
2023-04-26T00:50:33.248Z,438.00
2023-04-26T00:51:33.262Z,439.00
2023-04-26T00:52:33.319Z,442.00
2023-04-26T00:53:33.311Z,442.00
2023-04-26T00:54:33.364Z,440.00
2023-04-26T00:55:33.459Z,441.00
2023-04-26T00:56:33.416Z,443.00
2023-04-26T00:57:33.459Z,443.00
2023-04-26T00:58:33.480Z,442.00
2023-04-26T00:59:33.518Z,441.00
2023-04-26T01:00:33.567Z,443.00
2023-04-26T01:01:33.741Z,445.00
2023-04-26T01:02:33.741Z,444.00
2023-04-26T01:03:33.754Z,442.00
2023-04-26T01:04:33.778Z,443.00
2023-04-26T01:05:33.729Z,444.00
2023-04-26T01:06:33.759Z,445.00
2023-04-26T01:07:33.828Z,443.00
2023-04-26T01:08:33.808Z,443.00
2023-04-26T01:09:33.875Z,445.00
2023-04-26T01:10:33.860Z,443.00
2023-04-26T01:11:33.892Z,444.00
2023-04-26T01:12:33.914Z,446.00
2023-04-26T01:13:33.948Z,444.00
2023-04-26T01:14:33.998Z,443.00
2023-04-26T01:15:34.038Z,443.00
2023-04-26T01:16:34.119Z,441.00
2023-04-26T01:17:34.111Z,438.00
2023-04-26T01:18:34.098Z,438.00
2023-04-26T01:19:34.117Z,437.00
2023-04-26T01:20:34.204Z,436.00
2023-04-26T01:21:34.222Z,437.00
2023-04-26T01:22:34.248Z,435.00
2023-04-26T01:23:34.253Z,435.00
2023-04-26T01:24:34.306Z,433.00
2023-04-26T01:25:34.334Z,433.00
2023-04-26T01:26:34.384Z,432.00
2023-04-26T01:27:34.392Z,434.00
2023-04-26T01:28:34.426Z,434.00
2023-04-26T01:29:34.481Z,434.00
2023-04-26T01:30:34.505Z,434.00
2023-04-26T01:31:34.574Z,434.00
2023-04-26T01:32:34.628Z,437.00
2023-04-26T01:33:34.601Z,435.00
2023-04-26T01:34:34.656Z,434.00
2023-04-26T01:35:34.691Z,437.00
2023-04-26T01:36:34.725Z,438.00
2023-04-26T01:37:34.734Z,440.00
2023-04-26T01:38:34.776Z,439.00
2023-04-26T01:39:34.801Z,442.00
2023-04-26T01:40:34.865Z,443.00
2023-04-26T01:41:34.920Z,443.00
2023-04-26T01:42:34.891Z,442.00
2023-04-26T01:43:34.911Z,442.00
2023-04-26T01:44:34.951Z,443.00
2023-04-26T01:45:35.049Z,441.00
2023-04-26T01:46:35.094Z,439.00
2023-04-26T01:47:35.104Z,438.00
2023-04-26T01:48:35.077Z,438.00
2023-04-26T01:49:35.139Z,438.00
2023-04-26T01:50:35.152Z,439.00
2023-04-26T01:51:35.174Z,438.00
2023-04-26T01:52:35.225Z,439.00
2023-04-26T01:53:35.296Z,440.00
2023-04-26T01:54:35.273Z,440.00
2023-04-26T01:55:35.325Z,441.00
2023-04-26T01:56:35.369Z,442.00
2023-04-26T01:57:35.385Z,444.00
2023-04-26T01:58:35.442Z,446.00
2023-04-26T01:59:35.461Z,445.00
2023-04-26T02:00:35.488Z,443.00
2023-04-26T02:01:35.587Z,445.00
2023-04-26T02:02:35.730Z,447.00
2023-04-26T02:03:35.672Z,449.00
2023-04-26T02:04:35.684Z,449.00
2023-04-26T02:05:35.695Z,449.00
2023-04-26T02:06:35.788Z,446.00
2023-04-26T02:07:35.806Z,445.00
2023-04-26T02:08:35.854Z,443.00
2023-04-26T02:09:35.912Z,441.00
2023-04-26T02:10:35.926Z,440.00
2023-04-26T02:11:35.986Z,441.00
2023-04-26T02:12:36.019Z,442.00
2023-04-26T02:13:36.058Z,440.00
2023-04-26T02:14:36.113Z,440.00
2023-04-26T02:15:36.159Z,436.00
2023-04-26T02:16:36.273Z,437.00
2023-04-26T02:17:36.272Z,438.00
2023-04-26T02:18:36.308Z,440.00
2023-04-26T02:19:36.320Z,439.00
2023-04-26T02:20:36.367Z,438.00
2023-04-26T02:21:36.427Z,437.00
2023-04-26T02:22:36.461Z,435.00
2023-04-26T02:23:36.468Z,435.00
2023-04-26T02:24:36.518Z,436.00
2023-04-26T02:25:36.599Z,435.00
2023-04-26T02:26:36.609Z,435.00
2023-04-26T02:27:36.701Z,438.00
2023-04-26T02:28:36.740Z,440.00
2023-04-26T02:29:44.496Z,441.00
2023-04-26T02:30:37.789Z,440.00
2023-04-26T02:31:36.794Z,441.00
2023-04-26T02:32:36.803Z,441.00
2023-04-26T02:33:36.765Z,443.00
2023-04-26T02:34:36.756Z,442.00
2023-04-26T02:35:36.770Z,442.00
2023-04-26T02:36:36.699Z,442.00
2023-04-26T02:37:36.737Z,441.00
2023-04-26T02:38:36.770Z,441.00
2023-04-26T02:39:36.732Z,440.00
2023-04-26T02:40:36.797Z,437.00
2023-04-26T02:41:36.832Z,437.00
2023-04-26T02:42:36.916Z,436.00
2023-04-26T02:43:36.926Z,440.00
2023-04-26T02:44:37.023Z,442.00
2023-04-26T02:45:37.047Z,443.00
2023-04-26T02:46:37.105Z,441.00
2023-04-26T02:47:37.169Z,442.00
2023-04-26T02:48:37.188Z,442.00
2023-04-26T02:49:37.252Z,442.00
2023-04-26T02:50:37.330Z,445.00
2023-04-26T02:51:37.396Z,447.00
2023-04-26T02:52:37.410Z,450.00
2023-04-26T02:53:37.525Z,452.00
2023-04-26T02:54:37.589Z,450.00
2023-04-26T02:55:37.604Z,449.00
2023-04-26T02:56:37.681Z,447.00
2023-04-26T02:57:37.688Z,446.00
2023-04-26T02:58:37.736Z,447.00
2023-04-26T02:59:37.808Z,445.00
2023-04-26T03:00:37.886Z,445.00
2023-04-26T03:01:37.970Z,444.00
2023-04-26T03:02:38.100Z,444.00
2023-04-26T03:03:38.296Z,442.00
2023-04-26T03:04:38.124Z,440.00
2023-04-26T03:05:38.153Z,439.00
2023-04-26T03:06:38.231Z,437.00
2023-04-26T03:07:38.278Z,437.00
2023-04-26T03:08:38.346Z,438.00
2023-04-26T03:09:38.369Z,440.00
2023-04-26T03:10:38.448Z,441.00
2023-04-26T03:11:38.505Z,441.00
2023-04-26T03:12:38.585Z,439.00
2023-04-26T03:13:38.627Z,439.00
2023-04-26T03:14:38.688Z,441.00
2023-04-26T03:15:38.745Z,442.00
2023-04-26T03:16:38.806Z,443.00
2023-04-26T03:17:38.904Z,443.00
2023-04-26T03:18:38.958Z,444.00
2023-04-26T03:19:38.998Z,446.00
2023-04-26T03:20:39.050Z,443.00
2023-04-26T03:21:39.138Z,440.00
2023-04-26T03:22:39.191Z,441.00
2023-04-26T03:23:39.273Z,442.00
2023-04-26T03:24:39.336Z,441.00
2023-04-26T03:25:39.413Z,439.00
2023-04-26T03:26:39.456Z,441.00
2023-04-26T03:27:39.498Z,442.00
2023-04-26T03:28:39.569Z,442.00
2023-04-26T03:29:40.067Z,441.00
2023-04-26T03:30:39.698Z,439.00
2023-04-26T03:31:39.772Z,439.00
2023-04-26T03:32:39.840Z,441.00
2023-04-26T03:33:39.827Z,441.00
2023-04-26T03:34:39.904Z,441.00
2023-04-26T03:35:39.923Z,444.00
2023-04-26T03:36:39.971Z,442.00
2023-04-26T03:37:40.229Z,445.00
2023-04-26T03:38:40.121Z,445.00
2023-04-26T03:39:40.195Z,448.00
2023-04-26T03:40:40.259Z,447.00
2023-04-26T03:41:40.298Z,446.00
2023-04-26T03:42:40.333Z,445.00
2023-04-26T03:43:40.328Z,444.00
2023-04-26T03:44:40.335Z,442.00
2023-04-26T03:45:40.458Z,444.00
2023-04-26T03:46:40.417Z,444.00
2023-04-26T03:47:40.452Z,445.00
2023-04-26T03:48:40.474Z,444.00
2023-04-26T03:49:40.563Z,445.00
2023-04-26T03:50:40.650Z,445.00
2023-04-26T03:51:40.721Z,446.00
2023-04-26T03:52:40.761Z,446.00
2023-04-26T03:53:40.798Z,445.00
2023-04-26T03:54:40.826Z,446.00
2023-04-26T03:55:40.820Z,444.00
2023-04-26T03:56:40.824Z,442.00
2023-04-26T03:57:40.823Z,440.00
2023-04-26T03:58:40.898Z,440.00
2023-04-26T03:59:40.922Z,439.00
2023-04-26T04:00:40.924Z,441.00
2023-04-26T04:01:40.918Z,443.00
2023-04-26T04:02:41.051Z,443.00
2023-04-26T04:03:41.718Z,445.00
2023-04-26T04:04:41.059Z,444.00
2023-04-26T04:05:41.023Z,445.00
2023-04-26T04:06:40.916Z,445.00
2023-04-26T04:07:40.949Z,443.00
2023-04-26T04:08:41.047Z,442.00
2023-04-26T04:09:41.125Z,447.00
2023-04-26T04:10:41.217Z,447.00
2023-04-26T04:11:41.128Z,449.00
2023-04-26T04:12:41.142Z,448.00
2023-04-26T04:13:41.139Z,448.00
2023-04-26T04:14:41.135Z,450.00
2023-04-26T04:15:41.282Z,450.00
2023-04-26T04:16:41.330Z,448.00
2023-04-26T04:17:41.490Z,448.00
2023-04-26T04:18:41.538Z,449.00
2023-04-26T04:19:41.539Z,449.00
2023-04-26T04:20:41.623Z,448.00
2023-04-26T04:21:41.569Z,447.00
2023-04-26T04:22:41.594Z,448.00
2023-04-26T04:23:41.571Z,450.00
2023-04-26T04:24:41.605Z,450.00
2023-04-26T04:25:41.732Z,450.00
2023-04-26T04:26:41.825Z,450.00
2023-04-26T04:27:41.902Z,453.00
2023-04-26T04:28:42.011Z,453.00
2023-04-26T04:29:42.055Z,454.00
2023-04-26T04:30:42.102Z,452.00
2023-04-26T04:31:42.193Z,452.00
2023-04-26T04:32:42.106Z,453.00
2023-04-26T04:33:42.062Z,453.00
2023-04-26T04:34:42.043Z,454.00
2023-04-26T04:35:42.178Z,451.00
2023-04-26T04:36:42.183Z,450.00
2023-04-26T04:37:42.168Z,449.00
2023-04-26T04:38:42.141Z,446.00
2023-04-26T04:39:42.167Z,447.00
2023-04-26T04:40:42.196Z,445.00
2023-04-26T04:41:42.202Z,445.00
2023-04-26T04:42:42.297Z,446.00
2023-04-26T04:43:42.381Z,445.00
2023-04-26T04:44:42.507Z,443.00
2023-04-26T04:45:42.596Z,444.00
2023-04-26T04:46:42.706Z,445.00
2023-04-26T04:47:42.713Z,448.00
2023-04-26T04:48:42.654Z,448.00
2023-04-26T04:49:42.673Z,447.00
2023-04-26T04:50:42.730Z,449.00
2023-04-26T04:51:42.769Z,451.00
2023-04-26T04:52:42.858Z,453.00
2023-04-26T04:53:42.937Z,451.00
2023-04-26T04:54:42.993Z,450.00
2023-04-26T04:55:43.022Z,450.00
2023-04-26T04:56:43.075Z,451.00
2023-04-26T04:57:43.307Z,450.00
2023-04-26T04:58:43.233Z,449.00
2023-04-26T04:59:43.230Z,448.00
2023-04-26T05:00:43.307Z,447.00
2023-04-26T05:01:43.345Z,447.00
2023-04-26T05:02:43.456Z,445.00
2023-04-26T05:03:43.571Z,446.00
2023-04-26T05:04:43.577Z,443.00
2023-04-26T05:05:43.576Z,444.00
2023-04-26T05:06:43.626Z,443.00
2023-04-26T05:07:43.670Z,443.00
2023-04-26T05:08:43.740Z,443.00
2023-04-26T05:09:43.800Z,443.00
2023-04-26T05:10:43.836Z,444.00
2023-04-26T05:11:43.889Z,444.00
2023-04-26T05:12:43.973Z,446.00
2023-04-26T05:13:44.005Z,446.00
2023-04-26T05:14:44.083Z,443.00
2023-04-26T05:15:44.158Z,444.00
2023-04-26T05:16:44.263Z,445.00
2023-04-26T05:17:44.278Z,445.00
2023-04-26T05:18:44.271Z,446.00
2023-04-26T05:19:44.299Z,447.00
2023-04-26T05:20:44.388Z,448.00
2023-04-26T05:21:44.421Z,448.00
2023-04-26T05:22:44.465Z,448.00
2023-04-26T05:23:44.505Z,449.00
2023-04-26T05:24:44.565Z,445.00
2023-04-26T05:25:44.579Z,444.00
2023-04-26T05:26:44.670Z,442.00
2023-04-26T05:27:44.686Z,440.00
2023-04-26T05:28:44.744Z,441.00
2023-04-26T05:29:44.752Z,444.00
2023-04-26T05:30:44.801Z,445.00
2023-04-26T05:31:44.890Z,445.00
2023-04-26T05:32:44.892Z,446.00
2023-04-26T05:33:44.958Z,444.00
2023-04-26T05:34:44.976Z,444.00
2023-04-26T05:35:45.023Z,444.00
2023-04-26T05:36:45.052Z,443.00
2023-04-26T05:37:45.072Z,445.00
2023-04-26T05:38:45.131Z,447.00
2023-04-26T05:39:45.135Z,450.00
2023-04-26T05:40:45.177Z,453.00
2023-04-26T05:41:45.170Z,506.00
2023-04-26T05:42:45.194Z,489.00
2023-04-26T05:43:45.208Z,486.00
2023-04-26T05:44:45.214Z,489.00
2023-04-26T05:45:45.274Z,500.00
2023-04-26T05:46:45.220Z,506.00
2023-04-26T05:47:45.283Z,511.00
2023-04-26T05:48:45.272Z,535.00
2023-04-26T05:49:45.329Z,575.00
2023-04-26T05:50:45.408Z,606.00
2023-04-26T05:51:45.464Z,625.00
2023-04-26T05:52:45.494Z,642.00
2023-04-26T05:53:45.549Z,658.00
2023-04-26T05:54:45.637Z,669.00
2023-04-26T05:55:45.896Z,670.00
2023-04-26T05:56:45.733Z,675.00
2023-04-26T05:57:45.806Z,752.00
2023-04-26T05:58:45.813Z,817.00
2023-04-26T05:59:45.877Z,814.00
2023-04-26T06:00:46.348Z,799.00
2023-04-26T06:01:45.925Z,790.00
2023-04-26T06:02:46.135Z,799.00
2023-04-26T06:03:46.264Z,870.00
2023-04-26T06:04:46.105Z,836.00
2023-04-26T06:05:46.060Z,916.00
2023-04-26T06:06:46.033Z,887.00
2023-04-26T06:07:46.053Z,887.00
2023-04-26T06:08:46.063Z,894.00
2023-04-26T06:09:46.061Z,909.00
2023-04-26T06:10:46.062Z,932.00
2023-04-26T06:11:46.072Z,942.00
2023-04-26T06:12:46.078Z,947.00
2023-04-26T06:13:46.165Z,949.00
2023-04-26T06:14:46.250Z,950.00
2023-04-26T06:15:46.297Z,953.00
2023-04-26T06:16:46.363Z,958.00
2023-04-26T06:17:46.431Z,954.00
2023-04-26T06:18:46.449Z,959.00
2023-04-26T06:19:46.506Z,966.00
2023-04-26T06:20:46.557Z,970.00
2023-04-26T06:21:46.612Z,971.00
2023-04-26T06:22:46.637Z,971.00
2023-04-26T06:23:46.672Z,971.00
2023-04-26T06:24:46.722Z,978.00
2023-04-26T06:25:46.817Z,988.00
2023-04-26T06:26:46.833Z,992.00
2023-04-26T06:27:46.885Z,996.00
2023-04-26T06:28:46.892Z,1002.00
2023-04-26T06:29:46.945Z,1007.00
2023-04-26T06:30:46.989Z,1012.00
2023-04-26T06:31:46.992Z,1013.00
2023-04-26T06:32:47.130Z,1024.00
2023-04-26T06:33:47.058Z,1046.00
2023-04-26T06:34:47.094Z,1066.00
2023-04-26T06:35:47.398Z,1069.00
2023-04-26T06:36:47.141Z,1075.00
2023-04-26T06:37:47.178Z,1080.00
2023-04-26T06:38:47.199Z,1090.00
2023-04-26T06:39:47.207Z,1096.00
2023-04-26T06:40:47.239Z,1100.00
2023-04-26T06:41:47.252Z,1096.00
2023-04-26T06:42:47.244Z,1101.00
2023-04-26T06:43:47.281Z,1100.00
2023-04-26T06:44:47.274Z,1099.00
2023-04-26T06:45:47.377Z,1099.00
2023-04-26T06:46:47.350Z,1101.00
2023-04-26T06:47:47.451Z,1108.00
2023-04-26T06:48:47.388Z,1117.00
2023-04-26T06:49:47.394Z,1110.00
2023-04-26T06:50:47.483Z,1096.00
2023-04-26T06:51:47.450Z,968.00
2023-04-26T06:52:47.484Z,933.00
2023-04-26T06:53:47.486Z,958.00
2023-04-26T06:54:56.393Z,1041.00
2023-04-26T06:55:48.536Z,1058.00
2023-04-26T06:56:47.525Z,1076.00
2023-04-26T06:57:47.529Z,1169.00
2023-04-26T06:58:47.506Z,1191.00
2023-04-26T06:59:47.489Z,1199.00
2023-04-26T07:00:47.495Z,1202.00
2023-04-26T07:01:47.494Z,1209.00
2023-04-26T07:02:47.562Z,1218.00
2023-04-26T07:03:47.620Z,1226.00
2023-04-26T07:04:47.781Z,1240.00
2023-04-26T07:05:47.896Z,1255.00
2023-04-26T07:06:47.468Z,1281.00
2023-04-26T07:07:47.502Z,1297.00
2023-04-26T07:08:47.469Z,1298.00
2023-04-26T07:09:47.461Z,1303.00
2023-04-26T07:10:47.489Z,1311.00
2023-04-26T07:11:47.436Z,1315.00
2023-04-26T07:12:47.433Z,1321.00
2023-04-26T07:13:47.436Z,1326.00
2023-04-26T07:14:47.423Z,1333.00
2023-04-26T07:15:47.933Z,1346.00
2023-04-26T07:16:47.537Z,1354.00
2023-04-26T07:17:47.588Z,1365.00
2023-04-26T07:18:47.587Z,1369.00
2023-04-26T07:19:47.660Z,1373.00
2023-04-26T07:20:47.725Z,1373.00
2023-04-26T07:21:47.795Z,1373.00
2023-04-26T07:22:47.945Z,1386.00
2023-04-26T07:23:47.944Z,1397.00
2023-04-26T07:24:47.934Z,1404.00
2023-04-26T07:25:48.000Z,1410.00
2023-04-26T07:26:48.051Z,1426.00
2023-04-26T07:27:48.103Z,1433.00
2023-04-26T07:28:48.140Z,1440.00
2023-04-26T07:29:48.162Z,1444.00
2023-04-26T07:30:48.279Z,1450.00
2023-04-26T07:31:48.251Z,1454.00
2023-04-26T07:32:48.340Z,1463.00
2023-04-26T07:33:48.356Z,1462.00
2023-04-26T07:34:48.318Z,1477.00
2023-04-26T07:35:48.387Z,1486.00
2023-04-26T07:36:48.428Z,1495.00
2023-04-26T07:37:48.449Z,1502.00
2023-04-26T07:38:48.506Z,1507.00
2023-04-26T07:39:48.513Z,1514.00
2023-04-26T07:40:48.909Z,1535.00
2023-04-26T07:41:48.542Z,1565.00
2023-04-26T07:42:48.578Z,1574.00
2023-04-26T07:43:48.630Z,1574.00
2023-04-26T07:44:48.737Z,1571.00
2023-04-26T07:45:48.702Z,1572.00
2023-04-26T07:46:48.710Z,1570.00
2023-04-26T07:47:48.758Z,1533.00
2023-04-26T07:48:48.753Z,1505.00
2023-04-26T07:49:48.768Z,1485.00
2023-04-26T07:50:48.916Z,1468.00
2023-04-26T07:51:50.487Z,1424.00
2023-04-26T07:52:48.887Z,1329.00
2023-04-26T07:53:48.910Z,1317.00
2023-04-26T07:54:49.007Z,1310.00
2023-04-26T07:55:49.424Z,1305.00
2023-04-26T07:56:49.032Z,1289.00
2023-04-26T07:57:49.038Z,1258.00
2023-04-26T07:58:49.128Z,1242.00
2023-04-26T07:59:49.175Z,1230.00
2023-04-26T08:00:49.199Z,1220.00
2023-04-26T08:01:49.278Z,1208.00
2023-04-26T08:02:49.440Z,1198.00
2023-04-26T08:03:49.558Z,1179.00
2023-04-26T08:04:49.631Z,1172.00
2023-04-26T08:05:49.638Z,1166.00
2023-04-26T08:06:49.509Z,1160.00
2023-04-26T08:07:49.585Z,1137.00
2023-04-26T08:08:49.630Z,1129.00
2023-04-26T08:09:49.688Z,1114.00
2023-04-26T08:10:49.897Z,1103.00
2023-04-26T08:11:49.820Z,1093.00
2023-04-26T08:12:49.842Z,1075.00
2023-04-26T08:13:49.900Z,1064.00
2023-04-26T08:14:49.978Z,1056.00
2023-04-26T08:15:49.968Z,1044.00
2023-04-26T08:16:50.063Z,1033.00
2023-04-26T08:17:50.140Z,1024.00
2023-04-26T08:18:50.111Z,1014.00
2023-04-26T08:19:50.177Z,1013.00
2023-04-26T08:20:50.250Z,1005.00
2023-04-26T08:21:50.340Z,999.00
2023-04-26T08:22:50.405Z,991.00
2023-04-26T08:23:50.748Z,986.00
2023-04-26T08:24:50.498Z,979.00
2023-04-26T08:25:50.551Z,969.00
2023-04-26T08:26:50.633Z,960.00
2023-04-26T08:27:50.636Z,947.00
2023-04-26T08:28:50.709Z,932.00
2023-04-26T08:29:51.412Z,915.00
2023-04-26T08:30:50.859Z,906.00
2023-04-26T08:31:50.890Z,896.00
2023-04-26T08:32:50.970Z,892.00
2023-04-26T08:33:51.278Z,889.00
2023-04-26T08:34:51.055Z,884.00
2023-04-26T08:35:51.425Z,874.00
2023-04-26T08:36:51.178Z,869.00
2023-04-26T08:37:51.229Z,857.00
2023-04-26T08:38:51.281Z,832.00
2023-04-26T08:39:51.342Z,823.00
2023-04-26T08:40:51.416Z,816.00
2023-04-26T08:41:51.441Z,810.00
2023-04-26T08:42:51.572Z,804.00
2023-04-26T08:43:51.849Z,797.00
2023-04-26T08:44:51.617Z,790.00
2023-04-26T08:45:52.010Z,784.00
2023-04-26T08:46:51.707Z,777.00
2023-04-26T08:47:51.793Z,772.00
2023-04-26T08:48:51.825Z,766.00
2023-04-26T08:49:51.884Z,760.00
2023-04-26T08:50:52.443Z,758.00
2023-04-26T08:51:51.987Z,753.00
2023-04-26T08:52:52.074Z,748.00
2023-04-26T08:53:52.195Z,743.00
2023-04-26T08:54:52.141Z,737.00
2023-04-26T08:55:52.193Z,734.00
2023-04-26T08:56:52.234Z,728.00
2023-04-26T08:57:52.284Z,724.00
2023-04-26T08:58:52.349Z,716.00
2023-04-26T08:59:52.398Z,711.00
2023-04-26T09:00:52.476Z,708.00
2023-04-26T09:01:52.568Z,701.00
2023-04-26T09:02:53.062Z,695.00
2023-04-26T09:03:52.972Z,693.00
2023-04-26T09:04:52.779Z,688.00
2023-04-26T09:05:52.715Z,682.00
2023-04-26T09:06:52.739Z,680.00
2023-04-26T09:07:52.794Z,680.00
2023-04-26T09:08:52.859Z,677.00
2023-04-26T09:09:52.910Z,673.00
2023-04-26T09:10:52.949Z,669.00
2023-04-26T09:11:52.972Z,665.00
2023-04-26T09:12:53.042Z,660.00
2023-04-26T09:13:53.306Z,661.00
2023-04-26T09:14:53.168Z,658.00
2023-04-26T09:15:53.273Z,655.00
2023-04-26T09:16:53.305Z,653.00
2023-04-26T09:17:53.377Z,650.00
2023-04-26T09:18:53.548Z,647.00
2023-04-26T09:19:53.359Z,646.00
2023-04-26T09:20:53.420Z,648.00
2023-04-26T09:21:53.465Z,648.00
2023-04-26T09:22:53.521Z,645.00
2023-04-26T09:23:53.547Z,643.00
2023-04-26T09:24:53.593Z,645.00
2023-04-26T09:25:53.644Z,641.00
2023-04-26T09:26:53.690Z,638.00
2023-04-26T09:27:53.745Z,634.00
2023-04-26T09:28:53.876Z,632.00
2023-04-26T09:29:53.829Z,631.00
2023-04-26T09:30:53.983Z,631.00
2023-04-26T09:31:53.986Z,631.00
2023-04-26T09:32:53.978Z,629.00
2023-04-26T09:33:54.037Z,633.00
2023-04-26T09:34:54.046Z,645.00
2023-04-26T09:35:54.075Z,701.00
2023-04-26T09:36:54.085Z,714.00
2023-04-26T09:37:58.757Z,743.00
2023-04-26T09:38:55.137Z,825.00
2023-04-26T09:39:54.135Z,845.00
2023-04-26T09:40:54.452Z,852.00
2023-04-26T09:41:54.092Z,1072.00
2023-04-26T09:42:54.103Z,944.00
2023-04-26T09:43:54.088Z,933.00
2023-04-26T09:44:54.111Z,920.00
2023-04-26T09:45:54.448Z,914.00
2023-04-26T09:46:54.198Z,909.00
2023-04-26T09:47:54.124Z,907.00
2023-04-26T09:48:54.214Z,899.00
2023-04-26T09:49:54.061Z,893.00
2023-04-26T09:50:54.531Z,884.00
2023-04-26T09:51:54.044Z,871.00
2023-04-26T09:52:54.058Z,858.00
2023-04-26T09:53:55.605Z,849.00
2023-04-26T09:54:54.194Z,844.00
2023-04-26T09:55:54.270Z,842.00
2023-04-26T09:56:54.231Z,846.00
2023-04-26T09:57:54.270Z,846.00
2023-04-26T09:58:56.013Z,845.00
2023-04-26T09:59:55.541Z,844.00
2023-04-26T10:00:54.364Z,839.00
2023-04-26T10:01:54.312Z,828.00
2023-04-26T10:02:54.616Z,822.00
2023-04-26T10:03:54.618Z,820.00
2023-04-26T10:04:54.650Z,817.00
2023-04-26T10:05:54.478Z,814.00
2023-04-26T10:06:54.465Z,810.00
2023-04-26T10:07:54.518Z,799.00
2023-04-26T10:08:54.822Z,782.00
2023-04-26T10:09:55.542Z,770.00
2023-04-26T10:10:54.558Z,766.00
2023-04-26T10:11:54.563Z,760.00
2023-04-26T10:12:54.599Z,754.00
2023-04-26T10:13:54.617Z,751.00
2023-04-26T10:14:54.658Z,747.00
2023-04-26T10:15:54.685Z,742.00
2023-04-26T10:16:54.951Z,747.00
2023-04-26T10:17:54.748Z,750.00
2023-04-26T10:18:55.120Z,750.00
2023-04-26T10:19:54.765Z,746.00
2023-04-26T10:20:54.826Z,742.00
2023-04-26T10:21:54.818Z,742.00
2023-04-26T10:22:54.860Z,739.00
2023-04-26T10:23:54.861Z,737.00
2023-04-26T10:24:54.962Z,730.00
2023-04-26T10:25:54.991Z,726.00
2023-04-26T10:26:55.102Z,723.00
2023-04-26T10:27:54.983Z,722.00
2023-04-26T10:28:58.332Z,720.00
2023-04-26T10:29:56.003Z,712.00
2023-04-26T10:30:55.020Z,707.00
2023-04-26T10:31:55.038Z,707.00
2023-04-26T10:32:55.048Z,707.00
2023-04-26T10:33:54.970Z,708.00
2023-04-26T10:34:54.964Z,706.00
2023-04-26T10:35:54.967Z,706.00
2023-04-26T10:36:54.954Z,709.00
2023-04-26T10:37:54.929Z,780.00
2023-04-26T10:38:55.111Z,793.00
2023-04-26T10:39:54.902Z,790.00
2023-04-26T10:40:55.294Z,818.00
2023-04-26T10:41:54.937Z,814.00
2023-04-26T10:42:54.938Z,818.00
2023-04-26T10:43:55.307Z,822.00
2023-04-26T10:44:54.893Z,820.00
2023-04-26T10:45:54.932Z,818.00
2023-04-26T10:46:54.918Z,817.00
2023-04-26T10:47:54.948Z,813.00
2023-04-26T10:48:55.021Z,812.00
2023-04-26T10:49:54.875Z,811.00
2023-04-26T10:50:54.890Z,806.00
2023-04-26T10:51:54.845Z,802.00
2023-04-26T10:52:55.524Z,798.00
2023-04-26T10:53:55.187Z,794.00
2023-04-26T10:54:54.888Z,787.00
2023-04-26T10:55:54.845Z,779.00
2023-04-26T10:56:54.832Z,769.00
2023-04-26T10:57:54.826Z,764.00
2023-04-26T10:58:54.842Z,757.00
2023-04-26T10:59:55.501Z,750.00
2023-04-26T11:00:54.922Z,738.00
2023-04-26T11:01:55.141Z,730.00
2023-04-26T11:02:55.054Z,724.00
2023-04-26T11:03:55.204Z,721.00
2023-04-26T11:04:55.000Z,716.00
2023-04-26T11:05:54.902Z,713.00
2023-04-26T11:06:54.908Z,708.00
2023-04-26T11:07:54.945Z,703.00
2023-04-26T11:08:55.402Z,696.00
2023-04-26T11:09:54.903Z,694.00
2023-04-26T11:10:54.967Z,689.00
2023-04-26T11:11:54.952Z,684.00
2023-04-26T11:12:54.984Z,679.00
2023-04-26T11:13:54.986Z,675.00
2023-04-26T11:14:54.957Z,673.00
2023-04-26T11:15:55.150Z,671.00
2023-04-26T11:16:54.999Z,667.00
2023-04-26T11:17:55.043Z,660.00
2023-04-26T11:18:55.200Z,653.00
2023-04-26T11:19:54.988Z,648.00
2023-04-26T11:20:55.022Z,646.00
2023-04-26T11:21:56.316Z,644.00
2023-04-26T11:22:55.043Z,642.00
2023-04-26T11:23:55.050Z,639.00
2023-04-26T11:24:55.901Z,635.00
2023-04-26T11:25:55.485Z,636.00
2023-04-26T11:26:55.037Z,634.00
2023-04-26T11:27:55.049Z,632.00
2023-04-26T11:28:55.240Z,626.00
2023-04-26T11:29:55.083Z,621.00
2023-04-26T11:30:55.529Z,618.00
2023-04-26T11:31:55.207Z,616.00
2023-04-26T11:32:55.128Z,694.00
2023-04-26T11:33:55.057Z,804.00
2023-04-26T11:34:55.055Z,757.00
2023-04-26T11:35:55.071Z,759.00
2023-04-26T11:36:55.471Z,757.00
2023-04-26T11:37:55.123Z,759.00
2023-04-26T11:38:55.092Z,757.00
2023-04-26T11:39:55.104Z,755.00
2023-04-26T11:40:55.181Z,756.00
2023-04-26T11:41:55.191Z,762.00
2023-04-26T11:42:55.229Z,761.00
2023-04-26T11:43:55.405Z,761.00
2023-04-26T11:44:55.322Z,761.00
2023-04-26T11:45:55.375Z,759.00
2023-04-26T11:46:55.458Z,757.00
2023-04-26T11:47:55.536Z,755.00
2023-04-26T11:48:55.842Z,751.00
2023-04-26T11:49:55.628Z,750.00
2023-04-26T11:50:55.688Z,746.00
2023-04-26T11:51:55.791Z,738.00
2023-04-26T11:52:55.798Z,732.00
2023-04-26T11:53:55.848Z,725.00
2023-04-26T11:54:55.955Z,723.00
2023-04-26T11:55:56.000Z,721.00
2023-04-26T11:56:56.039Z,721.00
2023-04-26T11:57:56.102Z,719.00
2023-04-26T11:58:56.265Z,716.00
2023-04-26T11:59:56.230Z,717.00
2023-04-26T12:00:56.254Z,713.00
2023-04-26T12:01:56.431Z,710.00
2023-04-26T12:02:56.479Z,708.00
2023-04-26T12:03:56.664Z,710.00
2023-04-26T12:04:56.626Z,712.00
2023-04-26T12:05:56.590Z,717.00
2023-04-26T12:06:56.593Z,718.00
2023-04-26T12:07:56.674Z,718.00
2023-04-26T12:08:56.738Z,720.00
2023-04-26T12:09:58.072Z,721.00
2023-04-26T12:10:56.895Z,725.00
2023-04-26T12:11:56.911Z,729.00
2023-04-26T12:12:57.122Z,728.00
2023-04-26T12:13:56.982Z,729.00
2023-04-26T12:14:57.071Z,730.00
2023-04-26T12:15:57.098Z,730.00
2023-04-26T12:16:57.254Z,730.00
2023-04-26T12:17:57.274Z,730.00
2023-04-26T12:18:57.392Z,730.00
2023-04-26T12:19:57.334Z,729.00
2023-04-26T12:20:57.378Z,731.00
2023-04-26T12:21:57.428Z,730.00
2023-04-26T12:22:57.501Z,728.00
2023-04-26T12:23:57.523Z,726.00
2023-04-26T12:24:57.588Z,726.00
2023-04-26T12:25:57.620Z,724.00